createdAt,value
2018-12-13T00:01:00.338Z,39.78
2018-12-13T00:03:41.247Z,39.15
2018-12-13T00:06:22.039Z,37.15
2018-12-13T00:08:59.035Z,33.53
2018-12-13T00:11:38.422Z,33.53
2018-12-13T00:14:19.022Z,31.57
2018-12-13T00:16:56.086Z,30.68
2018-12-13T00:19:37.351Z,31.65
2018-12-13T00:22:18.173Z,28.17
2018-12-13T00:24:58.891Z,24.40
2018-12-13T00:27:40.695Z,25.25
2018-12-13T00:30:17.198Z,28.60
2018-12-13T00:32:58.531Z,27.27
2018-12-13T00:35:36.840Z,27.67
2018-12-13T00:38:17.641Z,26.17
2018-12-13T00:40:55.963Z,25.30
2018-12-13T00:43:32.896Z,28.42
2018-12-13T00:46:09.913Z,27.07
2018-12-13T00:48:50.968Z,23.60
2018-12-13T00:51:27.726Z,24.23
2018-12-13T00:54:08.787Z,26.52
2018-12-13T00:56:47.706Z,27.62
2018-12-13T00:59:25.873Z,30.12
2018-12-13T01:02:04.581Z,28.45
2018-12-13T01:04:42.653Z,29.70
2018-12-13T01:07:19.525Z,30.25
2018-12-13T01:09:56.664Z,28.92
2018-12-13T01:12:32.877Z,30.08
2018-12-13T01:15:09.673Z,29.52
2018-12-13T01:17:48.485Z,30.72
2018-12-13T01:20:24.326Z,34.15
2018-12-13T01:23:01.772Z,37.85
2018-12-13T01:25:40.602Z,39.42
2018-12-13T01:28:16.739Z,38.25
2018-12-13T01:30:53.710Z,40.43
2018-12-13T01:33:31.832Z,42.70
2018-12-13T01:36:10.622Z,40.20
2018-12-13T01:38:47.126Z,43.63
2018-12-13T01:41:25.100Z,42.00
2018-12-13T01:44:02.291Z,51.65
2018-12-13T01:46:40.845Z,48.65
2018-12-13T01:49:19.968Z,46.92
2018-12-13T01:51:59.103Z,53.55
2018-12-13T01:54:35.135Z,44.65
2018-12-13T01:57:16.102Z,52.78
2018-12-13T01:59:54.628Z,49.80
2018-12-13T02:02:31.367Z,41.15
2018-12-13T02:05:08.827Z,41.63
2018-12-13T02:07:46.838Z,46.28
2018-12-13T02:10:25.619Z,47.62
2018-12-13T02:13:06.650Z,47.43
2018-12-13T02:15:43.642Z,45.03
2018-12-13T02:18:20.040Z,48.83
2018-12-13T02:20:59.526Z,44.35
2018-12-13T02:23:37.879Z,47.95
2018-12-13T02:26:20.515Z,46.08
2018-12-13T02:28:57.434Z,44.18
2018-12-13T02:31:38.571Z,46.45
2018-12-13T02:34:23.265Z,41.85
2018-12-13T02:37:06.113Z,40.85
2018-12-13T02:39:38.227Z,38.02
2018-12-13T02:42:19.154Z,32.42
2018-12-13T02:44:55.545Z,29.05
2018-12-13T02:47:32.310Z,29.63
2018-12-13T02:50:11.071Z,27.35
2018-12-13T02:52:50.393Z,28.25
2018-12-13T02:55:31.135Z,27.95
2018-12-13T02:58:11.963Z,27.25
2018-12-13T03:00:50.707Z,31.00
2018-12-13T03:03:28.178Z,28.20
2018-12-13T03:06:06.389Z,25.05
2018-12-13T03:08:42.334Z,27.70
2018-12-13T03:11:21.093Z,29.98
2018-12-13T03:13:59.143Z,25.35
2018-12-13T03:16:38.086Z,26.45
2018-12-13T03:19:15.099Z,28.62
2018-12-13T03:21:53.760Z,26.70
2018-12-13T03:24:32.721Z,25.70
2018-12-13T03:27:11.761Z,23.05
2018-12-13T03:29:52.904Z,25.48
2018-12-13T03:32:37.976Z,26.02
2018-12-13T03:35:16.629Z,25.43
2018-12-13T03:37:55.114Z,27.73
2018-12-13T03:40:31.087Z,26.00
2018-12-13T03:43:09.477Z,34.30
2018-12-13T03:45:46.050Z,26.57
2018-12-13T03:48:23.771Z,27.73
2018-12-13T03:50:59.950Z,24.72
2018-12-13T03:53:41.871Z,25.65
2018-12-13T03:56:19.921Z,25.50
2018-12-13T03:58:56.809Z,25.97
2018-12-13T04:01:35.402Z,27.80
2018-12-13T04:04:13.780Z,27.70
2018-12-13T04:06:49.792Z,23.47
2018-12-13T04:09:26.501Z,23.80
2018-12-13T04:12:05.791Z,22.80
2018-12-13T04:14:41.837Z,24.02
2018-12-13T04:17:19.981Z,26.30
2018-12-13T04:19:55.990Z,24.35
2018-12-13T04:22:34.057Z,25.00
2018-12-13T04:30:22.661Z,24.43
2018-12-13T04:33:03.868Z,26.05
2018-12-13T04:35:44.430Z,28.35
2018-12-13T04:38:22.892Z,27.95
2018-12-13T04:41:01.699Z,23.45
2018-12-13T04:43:44.859Z,22.77
2018-12-13T04:46:23.580Z,21.50
2018-12-13T04:49:00.767Z,24.65
2018-12-13T04:51:39.055Z,23.20
2018-12-13T04:54:16.386Z,23.45
2018-12-13T04:56:57.245Z,24.57
2018-12-13T04:59:33.710Z,24.45
2018-12-13T05:02:11.631Z,23.92
2018-12-13T05:04:50.611Z,24.15
2018-12-13T05:07:33.416Z,24.55
2018-12-13T05:10:16.093Z,21.68
2018-12-13T05:12:55.472Z,23.27
2018-12-13T05:15:27.450Z,26.23
2018-12-13T05:17:59.555Z,22.52
2018-12-13T05:20:36.335Z,22.50
2018-12-13T05:23:08.404Z,24.37
2018-12-13T05:25:42.934Z,24.47
2018-12-13T05:28:19.737Z,24.10
2018-12-13T05:30:51.330Z,27.10
2018-12-13T05:33:23.483Z,24.00
2018-12-13T05:35:56.213Z,25.60
2018-12-13T05:38:29.563Z,28.60
2018-12-13T05:41:04.459Z,24.40
2018-12-13T05:43:36.574Z,26.20
2018-12-13T05:46:08.905Z,22.82
2018-12-13T05:48:43.523Z,26.15
2018-12-13T05:51:16.410Z,25.80
2018-12-13T05:53:49.188Z,26.68
2018-12-13T05:56:21.650Z,26.35
2018-12-13T05:58:53.479Z,24.43
2018-12-13T06:01:25.372Z,25.30
2018-12-13T06:03:57.076Z,22.73
2018-12-13T06:06:28.830Z,25.15
2018-12-13T06:09:01.001Z,26.48
2018-12-13T06:11:33.402Z,26.95
2018-12-13T06:14:05.591Z,23.57
2018-12-13T06:16:40.479Z,25.72
2018-12-13T06:19:12.289Z,28.35
2018-12-13T06:21:44.559Z,29.75
2018-12-13T06:24:16.503Z,29.27
2018-12-13T06:26:54.806Z,28.77
2018-12-13T06:29:27.235Z,27.40
2018-12-13T06:32:01.161Z,29.57
2018-12-13T06:34:33.059Z,27.95
2018-12-13T06:37:05.964Z,28.67
2018-12-13T06:39:37.838Z,30.65
2018-12-13T06:42:09.702Z,29.10
2018-12-13T06:44:46.016Z,29.75
2018-12-13T06:47:22.023Z,28.90
2018-12-13T06:49:54.437Z,29.95
2018-12-13T06:52:26.534Z,26.75
2018-12-13T06:55:04.954Z,29.90
2018-12-13T06:57:37.023Z,28.85
2018-12-13T07:00:09.662Z,30.10
2018-12-13T07:02:42.203Z,29.85
2018-12-13T07:05:15.663Z,27.98
2018-12-13T07:07:47.825Z,26.95
2018-12-13T07:10:28.038Z,31.17
2018-12-13T07:12:59.850Z,29.00
2018-12-13T07:15:31.666Z,26.07
2018-12-13T07:18:03.779Z,27.52
2018-12-13T07:20:35.369Z,27.73
2018-12-13T07:23:07.271Z,24.70
2018-12-13T07:25:39.451Z,26.70
2018-12-13T07:28:11.175Z,25.95
2018-12-13T07:30:42.951Z,27.15
2018-12-13T07:33:17.071Z,25.23
2018-12-13T07:35:49.204Z,24.50
2018-12-13T07:38:24.829Z,26.17
2018-12-13T07:40:57.321Z,24.72
2018-12-13T07:43:28.989Z,24.05
2018-12-13T07:46:00.983Z,27.52
2018-12-13T07:48:36.853Z,26.02
2018-12-13T07:51:11.964Z,24.92
2018-12-13T07:53:45.889Z,28.85
2018-12-13T07:56:17.574Z,24.32
2018-12-13T07:58:49.934Z,26.30
2018-12-13T08:01:22.422Z,24.63
2018-12-13T08:03:54.286Z,30.10
2018-12-13T08:06:28.261Z,25.20
2018-12-13T08:09:02.273Z,25.68
2018-12-13T08:11:34.661Z,24.35
2018-12-13T08:14:07.197Z,25.65
2018-12-13T08:16:38.821Z,20.72
2018-12-13T08:19:13.077Z,23.83
2018-12-13T08:21:47.563Z,21.05
2018-12-13T08:24:20.608Z,20.85
2018-12-13T08:26:54.717Z,22.52
2018-12-13T08:29:27.299Z,19.70
2018-12-13T08:32:03.394Z,16.40
2018-12-13T08:34:36.214Z,17.27
2018-12-13T08:37:10.931Z,13.78
2018-12-13T08:39:43.202Z,15.23
2018-12-13T08:42:14.859Z,14.68
2018-12-13T08:44:47.067Z,15.03
2018-12-13T08:47:18.871Z,12.88
2018-12-13T08:49:50.696Z,12.18
2018-12-13T08:52:22.747Z,15.18
2018-12-13T08:54:54.893Z,12.68
2018-12-13T08:57:27.101Z,14.50
2018-12-13T08:59:59.226Z,14.90
2018-12-13T09:02:31.112Z,14.10
2018-12-13T09:05:03.304Z,16.55
2018-12-13T09:07:35.063Z,15.70
2018-12-13T09:10:10.411Z,19.17
2018-12-13T09:12:42.628Z,12.37
2018-12-13T09:15:14.478Z,12.33
2018-12-13T09:17:46.607Z,11.95
2018-12-13T09:20:18.746Z,15.70
2018-12-13T09:22:53.089Z,16.30
2018-12-13T09:25:23.798Z,13.50
2018-12-13T09:27:57.925Z,14.10
2018-12-13T09:30:29.798Z,16.57
2018-12-13T09:33:01.787Z,19.57
2018-12-13T09:35:37.148Z,16.05
2018-12-13T09:38:09.306Z,12.43
2018-12-13T09:40:44.014Z,14.13
2018-12-13T09:43:16.568Z,14.18
2018-12-13T09:45:57.076Z,19.00
2018-12-13T09:48:29.801Z,15.20
2018-12-13T09:51:01.663Z,13.18
2018-12-13T09:53:34.252Z,12.25
2018-12-13T09:56:06.998Z,14.93
2018-12-13T09:58:38.542Z,14.78
2018-12-13T10:01:10.608Z,14.95
2018-12-13T10:03:42.465Z,14.83
2018-12-13T10:06:14.219Z,13.78
2018-12-13T10:08:46.533Z,11.90
2018-12-13T10:11:20.761Z,11.97
2018-12-13T10:13:55.593Z,14.78
2018-12-13T10:16:35.222Z,11.48
2018-12-13T10:19:06.581Z,13.78
2018-12-13T10:21:38.859Z,13.65
2018-12-13T10:24:11.237Z,12.88
2018-12-13T10:26:43.237Z,13.45
2018-12-13T10:29:15.999Z,13.65
2018-12-13T10:31:47.722Z,13.18
2018-12-13T10:34:19.735Z,15.28
2018-12-13T10:36:52.209Z,11.60
2018-12-13T10:39:24.842Z,16.67
2018-12-13T10:41:56.609Z,12.85
2018-12-13T10:44:33.450Z,13.40
2018-12-13T10:47:08.497Z,13.90
2018-12-13T10:49:41.602Z,12.65
2018-12-13T10:52:14.738Z,14.43
2018-12-13T10:54:48.914Z,14.85
2018-12-13T10:57:21.293Z,14.50
2018-12-13T10:59:53.119Z,17.85
2018-12-13T11:02:30.193Z,19.82
2018-12-13T11:05:03.307Z,19.37
2018-12-13T11:07:36.392Z,22.58
2018-12-13T11:10:09.453Z,20.35
2018-12-13T11:12:41.262Z,20.50
2018-12-13T11:15:13.703Z,18.62
2018-12-13T11:17:46.056Z,20.80
2018-12-13T11:20:18.691Z,20.05
2018-12-13T11:22:51.071Z,21.10
2018-12-13T11:25:22.963Z,25.05
2018-12-13T11:28:30.957Z,24.27
2018-12-13T11:31:03.239Z,27.45
2018-12-13T11:33:35.101Z,27.73
2018-12-13T11:36:07.129Z,28.57
2018-12-13T11:38:42.492Z,28.62
2018-12-13T11:41:15.268Z,30.27
2018-12-13T11:43:48.422Z,33.23
2018-12-13T11:46:21.502Z,29.40
2018-12-13T11:48:53.574Z,28.42
2018-12-13T11:51:26.326Z,29.98
2018-12-13T11:53:58.567Z,33.50
2018-12-13T11:56:30.355Z,34.45
2018-12-13T11:59:02.150Z,34.45
2018-12-13T12:01:34.056Z,35.35
2018-12-13T12:04:06.625Z,34.13
2018-12-13T12:06:38.622Z,32.13
2018-12-13T12:09:12.308Z,34.85
2018-12-13T12:11:44.926Z,34.85
2018-12-13T12:14:17.210Z,35.43
2018-12-13T12:16:49.950Z,35.58
2018-12-13T12:19:22.197Z,31.37
2018-12-13T12:21:54.181Z,34.43
2018-12-13T12:24:25.930Z,32.85
2018-12-13T12:26:56.051Z,36.08
2018-12-13T12:29:27.919Z,45.88
2018-12-13T12:31:59.773Z,37.98
2018-12-13T12:34:31.827Z,38.70
2018-12-13T12:37:04.490Z,33.08
2018-12-13T12:39:36.524Z,44.05
2018-12-13T12:42:08.402Z,44.98
2018-12-13T12:44:41.849Z,51.73
2018-12-13T12:47:17.898Z,34.20
2018-12-13T12:49:50.811Z,37.75
2018-12-13T12:52:23.140Z,43.00
2018-12-13T12:54:55.061Z,61.88
2018-12-13T12:57:27.399Z,35.30
2018-12-13T13:00:00.393Z,46.02
2018-12-13T13:02:33.130Z,38.25
2018-12-13T13:05:05.022Z,32.93
2018-12-13T13:07:37.661Z,41.05
2018-12-13T13:10:13.021Z,35.23
2018-12-13T13:12:44.581Z,36.85
2018-12-13T13:15:16.397Z,38.33
2018-12-13T13:17:48.260Z,37.13
2018-12-13T13:20:22.513Z,35.63
2018-12-13T13:22:57.361Z,37.88
2018-12-13T13:25:30.949Z,32.33
2018-12-13T13:28:02.651Z,31.17
2018-12-13T13:30:35.470Z,34.53
2018-12-13T13:33:07.151Z,38.53
2018-12-13T13:35:39.476Z,35.78
2018-12-13T13:38:11.841Z,35.33
2018-12-13T13:40:49.983Z,33.90
2018-12-13T13:43:28.876Z,33.10
2018-12-13T13:46:06.851Z,32.13
2018-12-13T13:48:39.665Z,36.40
2018-12-13T13:51:12.148Z,35.35
2018-12-13T13:53:52.643Z,38.50
2018-12-13T13:56:24.531Z,37.65
2018-12-13T13:58:57.134Z,42.03
2018-12-13T14:01:29.446Z,41.90
2018-12-13T14:04:01.339Z,33.92
2018-12-13T14:06:33.485Z,38.58
2018-12-13T14:09:08.626Z,33.83
2018-12-13T14:11:41.676Z,32.85
2018-12-13T14:14:16.049Z,35.38
2018-12-13T14:16:48.756Z,31.40
2018-12-13T14:19:21.158Z,33.73
2018-12-13T14:21:53.815Z,33.25
2018-12-13T14:24:26.309Z,33.98
2018-12-13T14:26:58.653Z,33.28
2018-12-13T14:29:31.077Z,33.48
2018-12-13T14:32:02.984Z,33.00
2018-12-13T14:34:34.625Z,33.80
2018-12-13T14:37:07.363Z,38.15
2018-12-13T14:39:44.435Z,51.30
2018-12-13T14:42:13.690Z,57.88
2018-12-13T14:44:45.705Z,32.05
2018-12-13T14:47:21.677Z,31.70
2018-12-13T14:49:54.174Z,40.83
2018-12-13T14:52:28.507Z,30.23
2018-12-13T14:55:02.071Z,37.48
2018-12-13T14:57:34.069Z,37.53
2018-12-13T15:00:10.249Z,35.92
2018-12-13T15:02:44.930Z,43.83
2018-12-13T15:08:19.353Z,34.65
2018-12-13T15:10:52.004Z,40.70
2018-12-13T15:13:28.812Z,39.70
2018-12-13T15:16:00.886Z,30.88
2018-12-13T15:18:39.934Z,41.33
2018-12-13T15:21:20.595Z,32.20
2018-12-13T15:23:52.933Z,29.32
2018-12-13T15:26:27.081Z,36.42
2018-12-13T15:28:59.767Z,35.70
2018-12-13T15:31:32.044Z,32.40
2018-12-13T15:34:04.540Z,33.60
2018-12-13T15:36:38.562Z,32.30
2018-12-13T15:39:12.673Z,32.58
2018-12-13T15:41:47.926Z,37.35
2018-12-13T15:44:26.188Z,31.90
2018-12-13T15:47:05.008Z,33.65
2018-12-13T15:49:37.496Z,39.65
2018-12-13T15:52:14.135Z,32.53
2018-12-13T15:54:47.222Z,34.55
2018-12-13T15:57:20.222Z,34.45
2018-12-13T15:59:54.304Z,36.88
2018-12-13T16:02:27.206Z,30.72
2018-12-13T16:04:57.666Z,32.13
2018-12-13T16:07:29.719Z,36.68
2018-12-13T16:10:04.047Z,33.45
2018-12-13T16:12:35.669Z,31.25
2018-12-13T16:15:08.018Z,31.30
2018-12-13T16:17:40.702Z,33.65
2018-12-13T16:20:12.519Z,32.98
2018-12-13T16:22:44.914Z,38.53
2018-12-13T16:25:16.990Z,38.75
2018-12-13T16:27:51.374Z,32.73
2018-12-13T16:30:21.993Z,30.00
2018-12-13T16:32:54.812Z,31.30
2018-12-13T16:35:27.203Z,31.93
2018-12-13T16:37:59.792Z,38.40
2018-12-13T16:40:31.581Z,36.00
2018-12-13T16:43:03.677Z,27.90
2018-12-13T16:45:36.997Z,27.85
2018-12-13T16:48:12.648Z,22.98
2018-12-13T16:50:44.300Z,24.82
2018-12-13T16:53:21.318Z,22.90
2018-12-13T16:55:52.923Z,23.35
2018-12-13T16:58:25.514Z,25.20
2018-12-13T17:00:58.638Z,26.52
2018-12-13T17:03:40.636Z,29.55
2018-12-13T17:06:15.550Z,27.42
2018-12-13T17:08:48.688Z,28.92
2018-12-13T17:11:20.957Z,29.55
2018-12-13T17:13:53.954Z,33.95
2018-12-13T17:16:25.947Z,32.60
2018-12-13T17:18:58.258Z,32.13
2018-12-13T17:21:31.594Z,35.00
2018-12-13T17:24:04.636Z,30.82
2018-12-13T17:26:41.427Z,31.57
2018-12-13T17:29:15.615Z,31.42
2018-12-13T17:34:28.567Z,28.20
2018-12-13T17:37:04.294Z,28.38
2018-12-13T17:47:19.010Z,28.80
2018-12-13T17:49:55.293Z,27.75
2018-12-13T17:52:31.808Z,27.87
2018-12-13T17:55:10.257Z,30.95
2018-12-13T17:57:48.081Z,24.57
2018-12-13T18:00:20.419Z,30.00
2018-12-13T18:02:56.414Z,28.02
2018-12-13T18:05:29.102Z,29.15
2018-12-13T18:08:06.279Z,28.17
2018-12-13T18:10:42.659Z,30.57
2018-12-13T18:13:16.450Z,27.45
2018-12-13T18:15:48.443Z,28.15
2018-12-13T18:18:21.558Z,26.57
2018-12-13T18:20:54.093Z,32.50
2018-12-13T18:23:33.195Z,29.82
2018-12-13T18:26:08.443Z,33.75
2018-12-13T18:28:42.467Z,37.53
2018-12-13T18:31:16.539Z,28.20
2018-12-13T18:33:50.503Z,24.98
2018-12-13T18:36:23.596Z,25.75
2018-12-13T18:38:56.599Z,21.30
2018-12-13T18:41:31.375Z,19.90
2018-12-13T18:44:13.326Z,18.62
2018-12-13T18:46:49.134Z,21.87
2018-12-13T18:49:26.994Z,21.65
2018-12-13T18:52:00.428Z,22.15
2018-12-13T18:54:34.836Z,19.40
2018-12-13T18:57:08.195Z,20.65
2018-12-13T18:59:44.277Z,19.45
2018-12-13T19:02:16.406Z,24.90
2018-12-13T19:04:50.578Z,21.57
2018-12-13T19:07:23.463Z,19.52
2018-12-13T19:09:55.477Z,22.02
2018-12-13T19:12:27.530Z,22.05
2018-12-13T19:15:00.329Z,25.72
2018-12-13T19:17:32.122Z,24.98
2018-12-13T19:20:04.317Z,23.05
2018-12-13T19:22:39.064Z,21.15
2018-12-13T19:25:13.985Z,20.32
2018-12-13T19:27:46.372Z,19.60
2018-12-13T19:30:20.564Z,21.17
2018-12-13T19:32:59.370Z,19.32
2018-12-13T19:35:32.864Z,21.05
2018-12-13T19:38:08.975Z,22.15
2018-12-13T19:40:48.532Z,21.85
2018-12-13T19:43:25.666Z,21.07
2018-12-13T19:45:58.156Z,20.60
2018-12-13T19:48:30.117Z,19.17
2018-12-13T19:51:02.996Z,22.90
2018-12-13T19:53:33.496Z,26.00
2018-12-13T19:56:08.414Z,22.17
2018-12-13T19:58:42.646Z,22.02
2018-12-13T20:01:18.733Z,23.40
2018-12-13T20:03:57.398Z,23.73
2018-12-13T20:06:32.207Z,26.42
2018-12-13T20:09:07.694Z,28.38
2018-12-13T20:11:43.289Z,53.63
2018-12-13T20:14:17.308Z,24.80
2018-12-13T20:16:50.494Z,25.23
2018-12-13T20:19:22.924Z,24.60
2018-12-13T20:21:55.643Z,22.80
2018-12-13T20:24:35.418Z,22.67
2018-12-13T20:27:12.249Z,23.42
2018-12-13T20:29:51.018Z,21.12
2018-12-13T20:32:22.339Z,21.87
2018-12-13T20:34:57.610Z,22.98
2018-12-13T20:37:31.551Z,21.97
2018-12-13T20:40:04.410Z,22.85
2018-12-13T20:42:37.998Z,20.50
2018-12-13T20:45:12.320Z,21.90
2018-12-13T20:47:47.107Z,28.30
2018-12-13T20:50:22.210Z,27.48
2018-12-13T20:52:56.947Z,24.90
2018-12-13T20:55:31.594Z,22.40
2018-12-13T20:58:04.193Z,25.23
2018-12-13T21:00:36.522Z,22.27
2018-12-13T21:03:13.288Z,20.90
2018-12-13T21:05:50.220Z,23.45
2018-12-13T21:08:29.360Z,28.20
2018-12-13T21:11:08.287Z,22.90
2018-12-13T21:13:45.035Z,24.92
2018-12-13T21:16:24.089Z,44.88
2018-12-13T21:19:02.830Z,23.30
2018-12-13T21:21:39.569Z,49.00
2018-12-13T21:24:16.195Z,33.92
2018-12-13T21:26:52.839Z,29.82
2018-12-13T21:29:29.705Z,59.15
2018-12-13T21:32:08.452Z,66.42
2018-12-13T21:34:46.837Z,28.57
2018-12-13T21:37:24.930Z,37.08
2018-12-13T21:39:59.447Z,32.00
2018-12-13T21:42:40.386Z,27.52
2018-12-13T21:45:17.110Z,26.80
2018-12-13T21:47:58.562Z,24.75
2018-12-13T21:50:33.294Z,24.47
2018-12-13T21:53:08.131Z,24.90
2018-12-13T21:55:47.226Z,24.40
2018-12-13T21:58:25.496Z,25.23
2018-12-13T22:01:06.454Z,25.20
2018-12-13T22:03:43.607Z,24.25
2018-12-13T22:06:25.881Z,27.02
2018-12-13T22:16:52.782Z,25.17
2018-12-13T22:19:33.946Z,24.92
2018-12-13T22:22:10.401Z,28.10
2018-12-13T22:24:51.553Z,25.55
2018-12-13T22:27:30.294Z,27.32
2018-12-13T22:30:08.221Z,25.88
2018-12-13T22:32:46.958Z,25.15
2018-12-13T22:35:21.497Z,28.45
2018-12-13T22:38:02.253Z,24.02
2018-12-13T22:40:43.184Z,23.55
2018-12-13T22:43:20.568Z,27.65
2018-12-13T22:46:03.503Z,26.42
2018-12-13T22:48:35.404Z,25.65
2018-12-13T22:51:11.451Z,25.02
2018-12-13T22:53:43.121Z,28.85
2018-12-13T22:56:19.334Z,28.80
2018-12-13T22:58:56.187Z,30.45
2018-12-13T23:01:33.503Z,29.95
2018-12-13T23:04:09.715Z,28.87
2018-12-13T23:06:43.728Z,26.17
2018-12-13T23:09:18.818Z,27.58
2018-12-13T23:11:56.219Z,25.97
2018-12-13T23:14:30.450Z,26.17
2018-12-13T23:17:09.874Z,27.60
2018-12-13T23:19:47.977Z,27.98
2018-12-13T23:22:28.888Z,26.68
2018-12-13T23:25:05.362Z,27.67
2018-12-13T23:27:42.056Z,27.65
2018-12-13T23:30:16.899Z,28.55
2018-12-13T23:32:53.530Z,26.60
2018-12-13T23:35:32.636Z,25.97
2018-12-13T23:38:10.894Z,27.95
2018-12-13T23:40:45.566Z,23.70
2018-12-13T23:43:26.938Z,24.65
2018-12-13T23:46:08.746Z,26.45
2018-12-13T23:48:47.084Z,26.95
2018-12-13T23:51:23.932Z,24.37
2018-12-13T23:53:59.910Z,29.52
2018-12-13T23:56:36.679Z,25.97
2018-12-13T23:59:16.919Z,25.68
